^^
Station Historical Data
Daily Summary for November 11, 2017 Units:  Metric    English   Both
« Previous Day
Next Day »
Daily Weekly Monthly Yearly Custom
  High: Low: Average:
Temperature: 36.1 °C 15.4 °C 23.7 °C
Dew Point: 8.7 °C -3.9 °C 3.6 °C
Humidity: 50% 8% 31%
Wind Speed: 35.2km/h 0km/h 8.4km/h
Wind Gust: 38.6km/h - -
Wind- - SSW
Pressure: 1009 hPa 1002.6 hPa -
Precipitation: 0 mm    
Historical Graphs
 
 
Tabular Data for November 11, 2017
Time Temperature Dew Point Pressure Wind Wind Speed Wind Gust Humidity Rainfall Rate (Hourly) solar Conditions
00:03 20.7 °C 5.1 °C 1007.3 hPa SW 7.9 km/h 14.5 km/h 36% 0 mm 0.0 W/m2
00:08 20.6 °C 5 °C 1007.3 hPa SW 9.7 km/h 11.3 km/h 36% 0 mm 0.0 W/m2
00:13 20.6 °C 5 °C 1007 hPa SW 7.9 km/h 11.3 km/h 36% 0 mm 0.0 W/m2
00:18 20.6 °C 5 °C 1007 hPa SW 4.7 km/h 9.7 km/h 36% 0 mm 0.0 W/m2
00:23 20.6 °C 5 °C 1007.3 hPa SW 7.9 km/h 9.7 km/h 36% 0 mm 0.0 W/m2
00:28 20.4 °C 4.8 °C 1007.3 hPa SW 4.7 km/h 4.8 km/h 36% 0 mm 0.0 W/m2
00:33 20.3 °C 4.7 °C 1007.3 hPa SW 3.2 km/h 6.4 km/h 36% 0 mm 0.0 W/m2
00:39 20.2 °C 4.6 °C 1007.3 hPa SW 6.4 km/h 8 km/h 36% 0 mm 0.0 W/m2
00:44 20.1 °C 5 °C 1007.3 hPa SW 4.7 km/h 9.7 km/h 37% 0 mm 0.0 W/m2
00:49 19.9 °C 4.8 °C 1007.3 hPa SW 7.9 km/h 8 km/h 37% 0 mm 0.0 W/m2
00:54 19.8 °C 4.7 °C 1007.3 hPa SW 6.4 km/h 11.3 km/h 37% 0 mm 0.0 W/m2
00:59 19.8 °C 4.7 °C 1007.3 hPa SW 9.7 km/h 11.3 km/h 37% 0 mm 0.0 W/m2
01:04 19.8 °C 4.7 °C 1007.3 hPa SW 9.7 km/h 9.7 km/h 37% 0 mm 0.0 W/m2
01:09 19.7 °C 5 °C 1007.3 hPa SW 7.9 km/h 11.3 km/h 38% 0 mm 0.0 W/m2
01:14 19.6 °C 4.9 °C 1007.3 hPa SW 7.9 km/h 9.7 km/h 38% 0 mm 0.0 W/m2
01:19 19.5 °C 4.8 °C 1007.3 hPa SW 9.7 km/h 11.3 km/h 38% 0 mm 0.0 W/m2
01:24 19.5 °C 4.8 °C 1007.3 hPa SW 7.9 km/h 8 km/h 38% 0 mm 0.0 W/m2
01:29 19.4 °C 4.7 °C 1007.3 hPa SW 6.4 km/h 6.4 km/h 38% 0 mm 0.0 W/m2
01:39 19.1 °C 4.4 °C 1007.3 hPa SW 6.4 km/h 8 km/h 38% 0 mm 0.0 W/m2
01:44 18.9 °C 4.3 °C 1007.3 hPa Calm   1.6 km/h 38% 0 mm 0.0 W/m2
01:50 18.8 °C 4.5 °C 1007.3 hPa Calm     39% 0 mm 0.0 W/m2
01:55 18.8 °C 4.5 °C 1007.3 hPa Calm     39% 0 mm 0.0 W/m2
02:01 18.7 °C 4.1 °C 1007.3 hPa Calm     38% 0 mm 0.0 W/m2
02:06 18.5 °C 3.9 °C 1007.3 hPa Calm     38% 0 mm 0.0 W/m2
02:11 18.3 °C 4.1 °C 1007 hPa Calm     39% 0 mm 0.0 W/m2
02:21 18.3 °C 4.1 °C 1007 hPa Calm     39% 0 mm 0.0 W/m2
02:27 18.4 °C 4.2 °C 1007.3 hPa Calm     39% 0 mm 0.0 W/m2
02:37 18.3 °C 4.5 °C 1007.3 hPa Calm     40% 0 mm 0.0 W/m2
02:42 18.2 °C 4.4 °C 1007 hPa Calm     40% 0 mm 0.0 W/m2
02:52 17.7 °C 3.9 °C 1007 hPa Calm     40% 0 mm 0.0 W/m2
02:57 17.6 °C 3.8 °C 1007.3 hPa Calm     40% 0 mm 0.0 W/m2
03:02 17.3 °C 3.9 °C 1007.3 hPa Calm     41% 0 mm 0.0 W/m2
03:07 17.1 °C 4.1 °C 1007.3 hPa Calm     42% 0 mm 0.0 W/m2
03:12 17.1 °C 4.4 °C 1007.3 hPa Calm     43% 0 mm 0.0 W/m2
03:18 17.1 °C 4.1 °C 1007.3 hPa Calm     42% 0 mm 0.0 W/m2
03:23 16.9 °C 4.2 °C 1007.3 hPa Calm     43% 0 mm 0.0 W/m2
03:29 16.8 °C 4.1 °C 1007.3 hPa Calm     43% 0 mm 0.0 W/m2
03:34 16.7 °C 4.4 °C 1007.3 hPa Calm     44% 0 mm 0.0 W/m2
03:39 16.6 °C 4.3 °C 1007.3 hPa Calm     44% 0 mm 0.0 W/m2
03:44 16.6 °C 4.3 °C 1007.3 hPa Calm     44% 0 mm 0.0 W/m2
03:49 16.6 °C 4.3 °C 1007.3 hPa Calm     44% 0 mm 0.0 W/m2
03:55 16.5 °C 4.2 °C 1007 hPa Calm     44% 0 mm 0.0 W/m2
04:00 16.4 °C 4.1 °C 1007.3 hPa Calm     44% 0 mm 0.0 W/m2
04:05 16.3 °C 4 °C 1007 hPa Calm     44% 0 mm 0.0 W/m2
04:10 16.2 °C 3.9 °C 1007 hPa Calm     44% 0 mm 0.0 W/m2
04:15 16.2 °C 3.9 °C 1007 hPa Calm     44% 0 mm 0.0 W/m2
04:20 16.2 °C 3.9 °C 1007.3 hPa Calm     44% 0 mm 0.0 W/m2
04:25 16.2 °C 3.9 °C 1007.3 hPa Calm     44% 0 mm 0.0 W/m2
04:31 16.1 °C 4.2 °C 1007.3 hPa Calm     45% 0 mm 0.0 W/m2
04:41 16.1 °C 4.2 °C 1007.3 hPa Calm     45% 0 mm 0.0 W/m2
04:51 16 °C 4.1 °C 1007.3 hPa Calm     45% 0 mm 0.0 W/m2
05:01 15.8 °C 3.9 °C 1007.3 hPa Calm     45% 0 mm 0.0 W/m2
05:06 15.8 °C 4.2 °C 1007.3 hPa Calm     46% 0 mm 0.0 W/m2
05:22 15.7 °C 4.1 °C 1007 hPa Calm     46% 0 mm 0.0 W/m2
05:28 15.5 °C 3.9 °C 1007 hPa Calm     46% 0 mm 0.0 W/m2
05:33 15.4 °C 4.1 °C 1007 hPa Calm     47% 0 mm 0.0 W/m2
05:43 15.4 °C 4.7 °C 1007.3 hPa Calm     49% 0 mm 0.0 W/m2
05:48 15.4 °C 4.7 °C 1007.3 hPa Calm     49% 0 mm 0.0 W/m2
06:05 15.4 °C 5 °C 1007.3 hPa Calm     50% 0 mm 11.0 W/m2
06:24 15.6 °C 4 °C 1007.3 hPa Calm     46% 0 mm 32.0 W/m2
06:38 16.7 °C 5 °C 1007.3 hPa Calm     46% 0 mm 69.0 W/m2
06:55 17.8 °C 5.4 °C 1007.3 hPa Calm     44% 0 mm 123.0 W/m2
07:10 19.1 °C 5.9 °C 1007.7 hPa Calm     42% 0 mm 186.0 W/m2
07:22 19.6 °C 6 °C 1007.7 hPa Calm     41% 0 mm 244.0 W/m2
07:30 19.9 °C 6.3 °C 1007.7 hPa SW 6.4 km/h 8 km/h 41% 0 mm 279.0 W/m2
07:35 20.1 °C 6.1 °C 1007.7 hPa SW 3.2 km/h 9.7 km/h 40% 0 mm 295.0 W/m2
07:41 20.4 °C 6 °C 1007.7 hPa SW 7.9 km/h 8 km/h 39% 0 mm 315.0 W/m2
07:50 20.8 °C 5.6 °C 1007.7 hPa SW 4.7 km/h 6.4 km/h 37% 0 mm 343.0 W/m2
07:55 21.1 °C 5.4 °C 1007.7 hPa SW 7.9 km/h 9.7 km/h 36% 0 mm 367.0 W/m2
08:06 21.6 °C 5.5 °C 1007.7 hPa SW 7.9 km/h 9.7 km/h 35% 0 mm 403.0 W/m2
08:15 22.1 °C 5.1 °C 1007.7 hPa SW 6.4 km/h 8 km/h 33% 0 mm 432.0 W/m2
08:20 22.4 °C 4.4 °C 1007.7 hPa SW 7.9 km/h 11.3 km/h 31% 0 mm 450.0 W/m2
08:33 22.9 °C 4.9 °C 1007.7 hPa SW 7.9 km/h 11.3 km/h 31% 0 mm 485.0 W/m2
08:42 23.4 °C 4.8 °C 1007.7 hPa SW 6.4 km/h 11.3 km/h 30% 0 mm 520.0 W/m2
08:50 24 °C 4.9 °C 1007.7 hPa SW 9.7 km/h 9.7 km/h 29% 0 mm 554.0 W/m2
08:56 24.3 °C 4.6 °C 1007.7 hPa SW 6.4 km/h 11.3 km/h 28% 0 mm 571.0 W/m2
09:06 24.9 °C 2.9 °C 1007.7 hPa SW 4.7 km/h 9.7 km/h 24% 0 mm 603.0 W/m2
09:18 25.4 °C 2.8 °C 1007.3 hPa SW 7.9 km/h 11.3 km/h 23% 0 mm 629.0 W/m2
09:23 25.7 °C 2.4 °C 1007.3 hPa SW 6.4 km/h 9.7 km/h 22% 0 mm 647.0 W/m2
09:31 26.2 °C 0.8 °C 1007.3 hPa Calm     19% 0 mm 677.0 W/m2
09:36 26.3 °C 0.1 °C 1007.3 hPa Calm     18% 0 mm 698.0 W/m2
09:41 26.5 °C -0.5 °C 1007.3 hPa Calm     17% 0 mm 712.0 W/m2
09:46 26.8 °C -1.1 °C 1007.3 hPa Calm     16% 0 mm 721.0 W/m2
09:52 27 °C -1.8 °C 1007.3 hPa Calm     15% 0 mm 737.0 W/m2
09:57 27.3 °C -1.6 °C 1007.3 hPa Calm     15% 0 mm 751.0 W/m2
10:07 27.8 °C -2.1 °C 1007.3 hPa Calm     14% 0 mm 777.0 W/m2
10:12 28 °C -3 °C 1007.3 hPa Calm     13% 0 mm 788.0 W/m2
10:17 28.2 °C -3.9 °C 1007.3 hPa Calm     12% 0 mm 800.0 W/m2
10:27 28.6 °C -1.5 °C 1007.3 hPa Calm   1.6 km/h 14% 0 mm 823.0 W/m2
10:32 28.9 °C -1.3 °C 1007.3 hPa SW 7.9 km/h 11.3 km/h 14% 0 mm 835.0 W/m2
10:37 29.1 °C -2.1 °C 1007.3 hPa SW 7.9 km/h 11.3 km/h 13% 0 mm 844.0 W/m2
10:48 29.2 °C -1 °C 1007.3 hPa SW 13 km/h 13 km/h 14% 0 mm 863.0 W/m2
11:03 29.8 °C -0.6 °C 1007 hPa Calm     14% 0 mm 888.0 W/m2
11:14 30.4 °C -0.1 °C 1007 hPa SW 6.4 km/h 12.9 km/h 14% 0 mm 905.0 W/m2
11:20 30.6 °C 0.1 °C 1006.7 hPa SW 7.9 km/h 11.3 km/h 14% 0 mm 912.0 W/m2
11:25 30.8 °C -0.8 °C 1006.7 hPa SW 1.4 km/h 4.8 km/h 13% 0 mm 919.0 W/m2
11:33 30.9 °C -0.7 °C 1006.3 hPa Calm   8 km/h 13% 0 mm 930.0 W/m2
11:38 31.3 °C -0.4 °C 1006.3 hPa SW 14.3 km/h 14.5 km/h 13% 0 mm 935.0 W/m2
11:44 31.7 °C -0.1 °C 1006.3 hPa SW 6.4 km/h 11.3 km/h 13% 0 mm 939.0 W/m2
11:49 31.6 °C -0.2 °C 1006.3 hPa SW 9.7 km/h 14.5 km/h 13% 0 mm 942.0 W/m2
11:54 31.5 °C -0.3 °C 1006.3 hPa Calm     13% 0 mm 946.0 W/m2
11:59 31.8 °C 0 °C 1006.3 hPa Calm     13% 0 mm 947.0 W/m2
12:09 32.2 °C -0.8 °C 1006.3 hPa SW 7.9 km/h 12.9 km/h 12% 0 mm 951.0 W/m2
12:19 32.5 °C -0.6 °C 1006.3 hPa Calm   1.6 km/h 12% 0 mm 958.0 W/m2
12:24 32.6 °C -1.7 °C 1006 hPa SW 9.7 km/h 11.3 km/h 11% 0 mm 954.0 W/m2
12:30 32.6 °C -1.7 °C 1006 hPa Calm   1.6 km/h 11% 0 mm 954.0 W/m2
12:41 32.8 °C -1.5 °C 1006 hPa Calm     11% 0 mm 954.0 W/m2
12:46 32.8 °C -1.5 °C 1005.6 hPa Calm   8 km/h 11% 0 mm 954.0 W/m2
12:53 33.1 °C -1.3 °C 1005.6 hPa Calm   12.9 km/h 11% 0 mm 954.0 W/m2
13:02 33.7 °C -0.8 °C 1005.6 hPa SW 1.4 km/h 1.6 km/h 11% 0 mm 951.0 W/m2
13:08 33.9 °C -2 °C 1005.3 hPa Calm   9.7 km/h 10% 0 mm 946.0 W/m2
13:23 33.9 °C -2 °C 1005 hPa Calm   1.6 km/h 10% 0 mm 937.0 W/m2
13:33 34.2 °C -1.8 °C 1005 hPa Calm   6.4 km/h 10% 0 mm 925.0 W/m2
13:39 34.2 °C -1.8 °C 1005 hPa SW 4.7 km/h 12.9 km/h 10% 0 mm 923.0 W/m2
13:53 34.2 °C -1.8 °C 1004.6 hPa SW 14.3 km/h 14.5 km/h 10% 0 mm 909.0 W/m2
14:36 34.7 °C -1.4 °C 1003.9 hPa Calm   11.3 km/h 10% 0 mm 838.0 W/m2
15:14 35.5 °C -2.2 °C 1003.6 hPa WSW 14.3 km/h 14.5 km/h 9% 0 mm 744.0 W/m2
15:23 35.3 °C -2.4 °C 1003.6 hPa Calm     9% 0 mm 719.0 W/m2
15:33 35.8 °C -3.6 °C 1003.3 hPa WNW 11.1 km/h 20.9 km/h 8% 0 mm 696.0 W/m2
15:38 35.8 °C -3.6 °C 1003.3 hPa WNW 1.4 km/h 6.4 km/h 8% 0 mm 680.0 W/m2
15:58 35.7 °C -3.6 °C 1002.9 hPa WNW 16.3 km/h 22.5 km/h 8% 0 mm 631.0 W/m2
16:13 35.7 °C -3.6 °C 1002.9 hPa WNW 3.2 km/h 4.8 km/h 8% 0 mm 582.0 W/m2
16:28 36.1 °C -3.4 °C 1002.9 hPa WNW 1.4 km/h 3.2 km/h 8% 0 mm 534.0 W/m2
16:42 35.9 °C -3.5 °C 1002.9 hPa WNW 4.7 km/h 12.9 km/h 8% 0 mm 485.0 W/m2
16:53 35.8 °C 0.8 °C 1002.9 hPa SSW 30.6 km/h 33.8 km/h 11% 0 mm 450.0 W/m2
17:08 34.5 °C 2.1 °C 1002.6 hPa South 22.7 km/h 30.6 km/h 13% 0 mm 396.0 W/m2
17:17 33.5 °C 3.3 °C 1002.9 hPa South 35.2 km/h 35.4 km/h 15% 0 mm 360.0 W/m2
17:28 32.4 °C 4.2 °C 1002.9 hPa South 28.8 km/h 33.8 km/h 17% 0 mm 323.0 W/m2
17:36 31.8 °C 5.3 °C 1002.9 hPa South 25.9 km/h 37 km/h 19% 0 mm 288.0 W/m2
17:44 31.2 °C 5.6 °C 1003.3 hPa SSW 24.1 km/h 37 km/h 20% 0 mm 253.0 W/m2
17:54 30.4 °C 6.3 °C 1003.3 hPa SW 30.6 km/h 37 km/h 22% 0 mm 213.0 W/m2
18:03 29.9 °C 5.9 °C 1003.6 hPa SSW 27.4 km/h 32.2 km/h 22% 0 mm 176.0 W/m2
18:09 29.7 °C 6.4 °C 1003.6 hPa SSW 27.4 km/h 35.4 km/h 23% 0 mm 156.0 W/m2
18:19 29.3 °C 6.6 °C 1003.6 hPa SSW 30.6 km/h 30.6 km/h 24% 0 mm 114.0 W/m2
18:24 29.1 °C 7.1 °C 1003.6 hPa SSW 17.7 km/h 32.2 km/h 25% 0 mm 95.0 W/m2
18:31 28.8 °C 6.8 °C 1003.6 hPa SSW 19.5 km/h 32.2 km/h 25% 0 mm 79.0 W/m2
18:41 28.3 °C 7.5 °C 1003.9 hPa SSW 27.4 km/h 38.6 km/h 27% 0 mm 49.0 W/m2
19:03 27.5 °C 7.4 °C 1004.3 hPa SSW 20.9 km/h 33.8 km/h 28% 0 mm 14.0 W/m2
19:29 25.9 °C 7.9 °C 1004.6 hPa SSW 30.6 km/h 37 km/h 32% 0 mm 0.0 W/m2
20:00 25.2 °C 7.8 °C 1005.3 hPa SSW 22.7 km/h 32.2 km/h 33% 0 mm 0.0 W/m2
20:15 24.6 °C 8.1 °C 1006 hPa SSW 20.9 km/h 29 km/h 35% 0 mm 0.0 W/m2
20:31 24.1 °C 8.1 °C 1006.3 hPa SSW 28.8 km/h 30.6 km/h 36% 0 mm 0.0 W/m2
20:45 23.4 °C 8.3 °C 1006.3 hPa SSW 16.3 km/h 25.7 km/h 38% 0 mm 0.0 W/m2
20:58 23.1 °C 8.4 °C 1007 hPa SSW 20.9 km/h 29 km/h 39% 0 mm 0.0 W/m2
21:10 22.8 °C 8.1 °C 1007 hPa SSW 17.7 km/h 27.4 km/h 39% 0 mm 0.0 W/m2
21:21 22.5 °C 8.2 °C 1007.3 hPa SSW 17.7 km/h 29 km/h 40% 0 mm 0.0 W/m2
21:30 22.3 °C 7.7 °C 1007.7 hPa SSW 22.7 km/h 29 km/h 39% 0 mm 0.0 W/m2
21:36 22.2 °C 8 °C 1007.7 hPa SSW 24.1 km/h 25.7 km/h 40% 0 mm 0.0 W/m2
21:45 21.9 °C 7.7 °C 1008 hPa South 22.7 km/h 24.1 km/h 40% 0 mm 0.0 W/m2
21:50 21.7 °C 7.9 °C 1008 hPa SSW 22.7 km/h 24.1 km/h 41% 0 mm 0.0 W/m2
21:59 21.4 °C 8 °C 1008.4 hPa South 20.9 km/h 30.6 km/h 42% 0 mm 0.0 W/m2
22:05 21.3 °C 8.2 °C 1008.4 hPa South 22.7 km/h 27.4 km/h 43% 0 mm 0.0 W/m2
22:10 21.2 °C 8.1 °C 1008.4 hPa SSW 20.9 km/h 30.6 km/h 43% 0 mm 0.0 W/m2
22:19 20.9 °C 8.2 °C 1008.7 hPa SSW 16.3 km/h 22.5 km/h 44% 0 mm 0.0 W/m2
22:25 20.8 °C 8.4 °C 1008.7 hPa South 19.5 km/h 25.7 km/h 45% 0 mm 0.0 W/m2
22:34 20.6 °C 8.6 °C 1008.7 hPa South 22.7 km/h 29 km/h 46% 0 mm 0.0 W/m2
22:39 20.4 °C 8.7 °C 1008.7 hPa SSW 22.7 km/h 24.1 km/h 47% 0 mm 0.0 W/m2
22:44 20.3 °C 8.6 °C 1008.7 hPa SW 22.7 km/h 22.7 km/h 47% 0 mm 0.0 W/m2
22:50 20 °C 8.7 °C 1008.7 hPa SSW 16.3 km/h 24.1 km/h 48% 0 mm 0.0 W/m2
23:05 19.6 °C 8.6 °C 1009 hPa SSW 25.9 km/h 25.9 km/h 49% 0 mm 0.0 W/m2
23:10 19.5 °C 8.5 °C 1009 hPa SSW 17.7 km/h 24.1 km/h 49% 0 mm 0.0 W/m2
23:20 19.4 °C 8.1 °C 1009 hPa South 16.3 km/h 25.7 km/h 48% 0 mm 0.0 W/m2
23:25 19.3 °C 8 °C 1009 hPa South 16.3 km/h 24.1 km/h 48% 0 mm 0.0 W/m2
23:30 19.2 °C 8.2 °C 1009 hPa South 16.3 km/h 22.5 km/h 49% 0 mm 0.0 W/m2
23:35 19.1 °C 8.1 °C 1009 hPa SSW 22.7 km/h 22.7 km/h 49% 0 mm 0.0 W/m2
23:45 18.9 °C 8.2 °C 1009 hPa SSW 17.7 km/h 24.1 km/h 50% 0 mm 0.0 W/m2
23:50 18.8 °C 7.9 °C 1009 hPa SSW 17.7 km/h 22.5 km/h 49% 0 mm 0.0 W/m2
23:56 18.8 °C 7.9 °C 1009 hPa SSW 17.7 km/h 19.3 km/h 49% 0 mm 0.0 W/m2
Canyon Roadhouse, Fishriver Canyon, Namibia
Compliments of Weather Underground - 2.5 mb